Погода Старотолучеевона неделю

Воронежская область, Россия

14 - 20 июля
  • 14июля
    Сегодня
    +19°
    +34°
    Небольшая облачность
    ВремяПогодаТемператураВлажностьДавлениеВетер, м/сВероятность осадков
    00:00Ясно и безоблачно+20°C53 %754 мм0.7 м/с2 %
    03:00Ясно и безоблачно+17°C60 %754 мм0.6 м/с2 %
    06:00Ясно и безоблачно+17°C62 %754 мм0.5 м/с2 %
    09:00Небольшая облачность+26°C42 %754 мм1.1 м/с2 %
    12:00Практически безоблачно+31°C34 %754 мм2.4 м/с2 %
    15:00Небольшая облачность+33°C33 %753 мм2.3 м/с2 %
    18:00Небольшая облачность+33°C35 %752 мм2.1 м/с3 %
    21:00Ясно и безоблачно+28°C48 %753 мм1.3 м/с2 %
  • 15июля
    Понедельник
    +21°
    +35°
    Практически безоблачно
    ВремяПогодаТемператураВлажностьДавлениеВетер, м/сВероятность осадков
    00:00Ясно и безоблачно+23°C55 %752 мм0.6 м/с2 %
    03:00Ясно и безоблачно+21°C67 %753 мм0.7 м/с2 %
    06:00Ясно и безоблачно+21°C62 %753 мм0.6 м/с2 %
    09:00Ясно и безоблачно+30°C53 %753 мм1.2 м/с2 %
    12:00Практически безоблачно+33°C44 %753 мм2.2 м/с4 %
    15:00Практически безоблачно+35°C38 %752 мм2.2 м/с9 %
    18:00Практически безоблачно+34°C39 %752 мм2.1 м/с14 %
    21:00Ясно и безоблачно+29°C55 %752 мм1.2 м/с1 %
  • 16июля
    Вторник
    +20°
    +35°
    Практически безоблачно
    ВремяПогодаТемператураВлажностьДавлениеВетер, м/сВероятность осадков
    00:00Ясно и безоблачно+25°C67 %752 мм0.7 м/с2 %
    03:00Ясно и безоблачно+22°C73 %753 мм0.7 м/с2 %
    06:00Ясно и безоблачно+23°C74 %753 мм0.9 м/с2 %
    09:00Ясно и безоблачно+30°C51 %753 мм1.6 м/с2 %
    12:00Практически безоблачно+34°C43 %753 мм2.5 м/с2 %
    15:00Практически безоблачно+35°C38 %753 мм2.5 м/с2 %
    18:00Небольшая облачность+33°C42 %752 мм2.4 м/с25 %
    21:00Ясно и безоблачно+29°C54 %753 мм1.4 м/с4 %
  • 17июля
    Среда
    +22°
    +36°
    Практически безоблачно
    ВремяПогодаТемператураВлажностьДавлениеВетер, м/сВероятность осадков
    00:00Ясно и безоблачно+25°C62 %753 мм1.0 м/с2 %
    03:00Ясно и безоблачно+22°C70 %753 мм0.7 м/с2 %
    06:00Ясно и безоблачно+22°C68 %754 мм0.6 м/с2 %
    09:00Ясно и безоблачно+30°C47 %754 мм1.1 м/с2 %
    12:00Ясно и безоблачно+35°C36 %754 мм2.3 м/с2 %
    15:00Практически безоблачно+36°C30 %753 мм2.2 м/с4 %
    18:00Ясно и безоблачно+35°C32 %753 мм2.4 м/с3 %
    21:00Ясно и безоблачно+30°C48 %753 мм1.3 м/с2 %
  • 18июля
    Четверг
    +20°
    +35°
    Ясно и безоблачно
    ВремяПогодаТемператураВлажностьДавлениеВетер, м/сВероятность осадков
    00:00Ясно и безоблачно+25°C56 %753 мм0.9 м/с2 %
    03:00Ясно и безоблачно+23°C65 %754 мм0.8 м/с2 %
    06:00Ясно и безоблачно+23°C67 %753 мм0.7 м/с2 %
    09:00Ясно и безоблачно+31°C47 %753 мм1.3 м/с2 %
    12:00Ясно и безоблачно+34°C34 %753 мм2.5 м/с2 %
    15:00Ясно и безоблачно+34°C31 %752 мм2.3 м/с4 %
    18:00Ясно и безоблачно+34°C32 %752 мм2.0 м/с8 %
    21:00Ясно и безоблачно+29°C40 %752 мм1.6 м/с2 %
Мы используем cookies
Соглашаюсь